sensor_id;sensor_type;location;lat;lon;timestamp;pressure;altitude;pressure_sealevel;temperature;humidity
51439;BME280;38816;51.142;-0.974;2023-04-26T00:01:15;100391.38;;;3.15;100.00
51439;BME280;38816;51.142;-0.974;2023-04-26T00:03:41;100382.66;;;3.10;100.00
51439;BME280;38816;51.142;-0.974;2023-04-26T00:06:07;100381.50;;;3.03;100.00
51439;BME280;38816;51.142;-0.974;2023-04-26T00:08:36;100387.50;;;3.05;100.00
51439;BME280;38816;51.142;-0.974;2023-04-26T00:11:02;100390.03;;;3.05;100.00
51439;BME280;38816;51.142;-0.974;2023-04-26T00:13:27;100376.03;;;2.96;100.00
51439;BME280;38816;51.142;-0.974;2023-04-26T00:15:53;100364.22;;;2.96;100.00
51439;BME280;38816;51.142;-0.974;2023-04-26T00:18:18;100364.94;;;2.94;100.00
51439;BME280;38816;51.142;-0.974;2023-04-26T00:20:44;100375.53;;;3.03;100.00
51439;BME280;38816;51.142;-0.974;2023-04-26T00:23:09;100375.44;;;3.01;100.00
51439;BME280;38816;51.142;-0.974;2023-04-26T00:25:35;100361.03;;;3.00;100.00
51439;BME280;38816;51.142;-0.974;2023-04-26T00:28:01;100352.53;;;3.00;100.00
51439;BME280;38816;51.142;-0.974;2023-04-26T00:30:27;100358.00;;;3.08;100.00
51439;BME280;38816;51.142;-0.974;2023-04-26T00:32:52;100369.19;;;3.11;100.00
51439;BME280;38816;51.142;-0.974;2023-04-26T00:35:18;100339.25;;;3.05;100.00
51439;BME280;38816;51.142;-0.974;2023-04-26T00:37:44;100367.28;;;3.25;100.00
51439;BME280;38816;51.142;-0.974;2023-04-26T00:40:10;100356.25;;;3.24;100.00
51439;BME280;38816;51.142;-0.974;2023-04-26T00:42:37;100346.22;;;3.27;100.00
51439;BME280;38816;51.142;-0.974;2023-04-26T00:45:04;100372.06;;;3.37;100.00
51439;BME280;38816;51.142;-0.974;2023-04-26T00:47:30;100371.41;;;3.41;100.00
51439;BME280;38816;51.142;-0.974;2023-04-26T00:49:55;100364.53;;;3.38;100.00
51439;BME280;38816;51.142;-0.974;2023-04-26T00:52:21;100366.19;;;3.38;100.00
51439;BME280;38816;51.142;-0.974;2023-04-26T00:54:50;100354.06;;;3.32;100.00
51439;BME280;38816;51.142;-0.974;2023-04-26T00:57:15;100351.69;;;3.35;100.00
51439;BME280;38816;51.142;-0.974;2023-04-26T00:59:41;100359.31;;;3.35;100.00
51439;BME280;38816;51.142;-0.974;2023-04-26T01:02:06;100363.06;;;3.43;100.00
51439;BME280;38816;51.142;-0.974;2023-04-26T01:04:32;100361.56;;;3.47;100.00
51439;BME280;38816;51.142;-0.974;2023-04-26T01:07:00;100347.94;;;3.46;100.00
51439;BME280;38816;51.142;-0.974;2023-04-26T01:09:28;100342.31;;;3.52;100.00
51439;BME280;38816;51.142;-0.974;2023-04-26T01:11:55;100327.72;;;3.48;100.00
51439;BME280;38816;51.142;-0.974;2023-04-26T01:14:23;100323.72;;;3.53;100.00
51439;BME280;38816;51.142;-0.974;2023-04-26T01:16:49;100303.81;;;3.44;100.00
51439;BME280;38816;51.142;-0.974;2023-04-26T01:19:15;100296.84;;;3.40;100.00
51439;BME280;38816;51.142;-0.974;2023-04-26T01:21:41;100307.97;;;3.42;100.00
51439;BME280;38816;51.142;-0.974;2023-04-26T01:24:10;100294.81;;;3.33;100.00
51439;BME280;38816;51.142;-0.974;2023-04-26T01:26:39;100298.91;;;3.29;100.00
51439;BME280;38816;51.142;-0.974;2023-04-26T01:29:15;100304.28;;;3.36;100.00
51439;BME280;38816;51.142;-0.974;2023-04-26T01:31:40;100292.16;;;3.30;100.00
51439;BME280;38816;51.142;-0.974;2023-04-26T01:34:06;100294.97;;;3.36;100.00
51439;BME280;38816;51.142;-0.974;2023-04-26T01:36:31;100292.16;;;3.30;100.00
51439;BME280;38816;51.142;-0.974;2023-04-26T01:38:56;100297.56;;;3.38;100.00
51439;BME280;38816;51.142;-0.974;2023-04-26T01:41:22;100288.09;;;3.34;100.00
51439;BME280;38816;51.142;-0.974;2023-04-26T01:43:48;100298.69;;;3.43;100.00
51439;BME280;38816;51.142;-0.974;2023-04-26T01:46:14;100299.47;;;3.42;100.00
51439;BME280;38816;51.142;-0.974;2023-04-26T01:48:39;100301.22;;;3.43;100.00
51439;BME280;38816;51.142;-0.974;2023-04-26T01:51:05;100296.00;;;3.40;100.00
51439;BME280;38816;51.142;-0.974;2023-04-26T01:53:30;100314.13;;;3.47;100.00
51439;BME280;38816;51.142;-0.974;2023-04-26T01:55:56;100313.38;;;3.50;100.00
51439;BME280;38816;51.142;-0.974;2023-04-26T01:58:24;100307.50;;;3.51;100.00
51439;BME280;38816;51.142;-0.974;2023-04-26T02:00:49;100312.78;;;3.55;100.00
51439;BME280;38816;51.142;-0.974;2023-04-26T02:03:15;100299.75;;;3.48;100.00
51439;BME280;38816;51.142;-0.974;2023-04-26T02:05:40;100300.56;;;3.47;100.00
51439;BME280;38816;51.142;-0.974;2023-04-26T02:08:06;100303.09;;;3.47;100.00
51439;BME280;38816;51.142;-0.974;2023-04-26T02:10:31;100299.75;;;3.48;100.00
51439;BME280;38816;51.142;-0.974;2023-04-26T02:12:57;100303.38;;;3.53;100.00
51439;BME280;38816;51.142;-0.974;2023-04-26T02:15:23;100296.25;;;3.46;100.00
51439;BME280;38816;51.142;-0.974;2023-04-26T02:17:48;100308.31;;;3.50;100.00
51439;BME280;38816;51.142;-0.974;2023-04-26T02:20:13;100306.56;;;3.49;100.00
51439;BME280;38816;51.142;-0.974;2023-04-26T02:22:39;100321.97;;;3.52;100.00
51439;BME280;38816;51.142;-0.974;2023-04-26T02:25:05;100309.06;;;3.47;100.00
51439;BME280;38816;51.142;-0.974;2023-04-26T02:27:30;100318.47;;;3.50;100.00
51439;BME280;38816;51.142;-0.974;2023-04-26T02:29:57;100314.34;;;3.52;100.00
51439;BME280;38816;51.142;-0.974;2023-04-26T02:32:22;100317.31;;;3.61;100.00
51439;BME280;38816;51.142;-0.974;2023-04-26T02:34:47;100316.56;;;3.64;100.00
51439;BME280;38816;51.142;-0.974;2023-04-26T02:37:13;100311.47;;;3.64;100.00
51439;BME280;38816;51.142;-0.974;2023-04-26T02:39:38;100299.38;;;3.58;100.00
51439;BME280;38816;51.142;-0.974;2023-04-26T02:42:08;100312.34;;;3.64;100.00
51439;BME280;38816;51.142;-0.974;2023-04-26T02:44:33;100312.50;;;3.67;100.00
51439;BME280;38816;51.142;-0.974;2023-04-26T02:46:59;100303.78;;;3.62;100.00
51439;BME280;38816;51.142;-0.974;2023-04-26T02:49:24;100306.69;;;3.70;100.00
51439;BME280;38816;51.142;-0.974;2023-04-26T02:51:50;100295.34;;;3.63;100.00
51439;BME280;38816;51.142;-0.974;2023-04-26T02:54:15;100305.53;;;3.63;100.00
51439;BME280;38816;51.142;-0.974;2023-04-26T02:56:41;100300.38;;;3.62;100.00
51439;BME280;38816;51.142;-0.974;2023-04-26T02:59:06;100307.13;;;3.61;100.00
51439;BME280;38816;51.142;-0.974;2023-04-26T03:01:32;100299.63;;;3.64;100.00
51439;BME280;38816;51.142;-0.974;2023-04-26T03:03:57;100298.69;;;3.62;100.00
51439;BME280;38816;51.142;-0.974;2023-04-26T03:06:22;100297.25;;;3.67;100.00
51439;BME280;38816;51.142;-0.974;2023-04-26T03:08:48;100304.06;;;3.68;100.00
51439;BME280;38816;51.142;-0.974;2023-04-26T03:11:13;100302.91;;;3.62;100.00
51439;BME280;38816;51.142;-0.974;2023-04-26T03:13:38;100314.09;;;3.65;100.00
51439;BME280;38816;51.142;-0.974;2023-04-26T03:16:04;100310.66;;;3.65;100.00
51439;BME280;38816;51.142;-0.974;2023-04-26T03:18:30;100311.47;;;3.64;100.00
51439;BME280;38816;51.142;-0.974;2023-04-26T03:20:55;100303.94;;;3.65;100.00
51439;BME280;38816;51.142;-0.974;2023-04-26T03:23:21;100304.81;;;3.66;100.00
51439;BME280;38816;51.142;-0.974;2023-04-26T03:25:49;100286.81;;;3.61;100.00
51439;BME280;38816;51.142;-0.974;2023-04-26T03:28:15;100277.34;;;3.59;100.00
51439;BME280;38816;51.142;-0.974;2023-04-26T03:30:41;100287.00;;;3.66;100.00
51439;BME280;38816;51.142;-0.974;2023-04-26T03:33:06;100268.06;;;3.59;100.00
51439;BME280;38816;51.142;-0.974;2023-04-26T03:35:32;100280.25;;;3.66;100.00
51439;BME280;38816;51.142;-0.974;2023-04-26T03:37:57;100257.78;;;3.56;100.00
51439;BME280;38816;51.142;-0.974;2023-04-26T03:40:22;100266.78;;;3.69;100.00
51439;BME280;38816;51.142;-0.974;2023-04-26T03:42:48;100259.91;;;3.66;100.00
51439;BME280;38816;51.142;-0.974;2023-04-26T03:45:13;100262.59;;;3.69;100.00
51439;BME280;38816;51.142;-0.974;2023-04-26T03:47:38;100249.47;;;3.60;100.00
51439;BME280;38816;51.142;-0.974;2023-04-26T03:50:05;100254.81;;;3.66;100.00
51439;BME280;38816;51.142;-0.974;2023-04-26T03:52:31;100248.00;;;3.65;100.00
51439;BME280;38816;51.142;-0.974;2023-04-26T03:54:56;100250.66;;;3.68;100.00
51439;BME280;38816;51.142;-0.974;2023-04-26T03:57:21;100247.34;;;3.69;100.00
51439;BME280;38816;51.142;-0.974;2023-04-26T03:59:47;100243.72;;;3.64;100.00
51439;BME280;38816;51.142;-0.974;2023-04-26T04:02:12;100238.16;;;3.73;100.00
51439;BME280;38816;51.142;-0.974;2023-04-26T04:04:38;100244.91;;;3.72;100.00
51439;BME280;38816;51.142;-0.974;2023-04-26T04:07:03;100245.88;;;3.74;100.00
51439;BME280;38816;51.142;-0.974;2023-04-26T04:09:28;100245.88;;;3.74;100.00
51439;BME280;38816;51.142;-0.974;2023-04-26T04:11:54;100250.97;;;3.74;100.00
51439;BME280;38816;51.142;-0.974;2023-04-26T04:14:19;100244.00;;;3.70;100.00
51439;BME280;38816;51.142;-0.974;2023-04-26T04:16:45;100246.78;;;3.76;100.00
51439;BME280;38816;51.142;-0.974;2023-04-26T04:19:10;100226.31;;;3.73;100.00
51439;BME280;38816;51.142;-0.974;2023-04-26T04:21:36;100227.31;;;3.77;100.00
51439;BME280;38816;51.142;-0.974;2023-04-26T04:24:01;100222.31;;;3.78;100.00
51439;BME280;38816;51.142;-0.974;2023-04-26T04:26:27;100223.25;;;3.80;100.00
51439;BME280;38816;51.142;-0.974;2023-04-26T04:28:53;100226.13;;;3.88;100.00
51439;BME280;38816;51.142;-0.974;2023-04-26T04:31:20;100227.03;;;3.90;100.00
51439;BME280;38816;51.142;-0.974;2023-04-26T04:33:45;100223.78;;;3.93;100.00
51439;BME280;38816;51.142;-0.974;2023-04-26T04:36:12;100222.81;;;3.91;100.00
51439;BME280;38816;51.142;-0.974;2023-04-26T04:38:37;100218.59;;;3.91;100.00
51439;BME280;38816;51.142;-0.974;2023-04-26T04:41:03;100231.50;;;3.96;100.00
51439;BME280;38816;51.142;-0.974;2023-04-26T04:43:28;100210.97;;;3.91;100.00
51439;BME280;38816;51.142;-0.974;2023-04-26T04:45:53;100220.56;;;3.97;100.00
51439;BME280;38816;51.142;-0.974;2023-04-26T04:48:19;100210.00;;;3.88;100.00
51439;BME280;38816;51.142;-0.974;2023-04-26T04:50:45;100216.81;;;3.89;100.00
51439;BME280;38816;51.142;-0.974;2023-04-26T04:53:11;100222.91;;;3.92;100.00
51439;BME280;38816;51.142;-0.974;2023-04-26T04:55:39;100219.69;;;3.96;100.00
51439;BME280;38816;51.142;-0.974;2023-04-26T04:58:05;100219.63;;;3.95;100.00
51439;BME280;38816;51.142;-0.974;2023-04-26T05:00:30;100218.06;;;3.98;100.00
51439;BME280;38816;51.142;-0.974;2023-04-26T05:02:56;100210.25;;;3.94;100.00
51439;BME280;38816;51.142;-0.974;2023-04-26T05:05:22;100208.63;;;3.96;100.00
51439;BME280;38816;51.142;-0.974;2023-04-26T05:07:47;100217.22;;;3.98;100.00
51439;BME280;38816;51.142;-0.974;2023-04-26T05:10:13;100228.69;;;4.09;100.00
51439;BME280;38816;51.142;-0.974;2023-04-26T05:12:39;100232.25;;;4.13;100.00
51439;BME280;38816;51.142;-0.974;2023-04-26T05:15:05;100228.97;;;4.15;100.00
51439;BME280;38816;51.142;-0.974;2023-04-26T05:17:31;100224.66;;;4.14;100.00
51439;BME280;38816;51.142;-0.974;2023-04-26T05:19:57;100231.88;;;4.24;100.00
51439;BME280;38816;51.142;-0.974;2023-04-26T05:22:23;100230.25;;;4.26;100.00
51439;BME280;38816;51.142;-0.974;2023-04-26T05:24:48;100228.78;;;4.31;100.00
51439;BME280;38816;51.142;-0.974;2023-04-26T05:27:14;100225.50;;;4.34;100.00
51439;BME280;38816;51.142;-0.974;2023-04-26T05:29:40;100231.78;;;4.42;100.00
51439;BME280;38816;51.142;-0.974;2023-04-26T05:32:06;100231.00;;;4.45;100.00
51439;BME280;38816;51.142;-0.974;2023-04-26T05:34:31;100243.34;;;4.55;100.00
51439;BME280;38816;51.142;-0.974;2023-04-26T05:36:56;100245.94;;;4.56;100.00
51439;BME280;38816;51.142;-0.974;2023-04-26T05:39:22;100249.56;;;4.63;100.00
51439;BME280;38816;51.142;-0.974;2023-04-26T05:41:47;100247.97;;;4.65;100.00
51439;BME280;38816;51.142;-0.974;2023-04-26T05:44:13;100249.84;;;4.69;100.00
51439;BME280;38816;51.142;-0.974;2023-04-26T05:46:39;100247.47;;;4.74;100.00
51439;BME280;38816;51.142;-0.974;2023-04-26T05:49:04;100251.88;;;4.78;100.00
51439;BME280;38816;51.142;-0.974;2023-04-26T05:51:30;100235.59;;;4.74;100.00
51439;BME280;38816;51.142;-0.974;2023-04-26T05:53:56;100250.47;;;4.86;100.00
51439;BME280;38816;51.142;-0.974;2023-04-26T05:56:22;100245.47;;;4.88;100.00
51439;BME280;38816;51.142;-0.974;2023-04-26T05:58:48;100239.50;;;4.87;100.00
51439;BME280;38816;51.142;-0.974;2023-04-26T06:01:13;100241.25;;;4.88;100.00
51439;BME280;38816;51.142;-0.974;2023-04-26T06:03:39;100254.50;;;5.02;100.00
51439;BME280;38816;51.142;-0.974;2023-04-26T06:06:04;100267.56;;;5.10;100.00
51439;BME280;38816;51.142;-0.974;2023-04-26T06:08:30;100262.47;;;5.10;100.00
51439;BME280;38816;51.142;-0.974;2023-04-26T06:10:55;100265.97;;;5.13;100.00
51439;BME280;38816;51.142;-0.974;2023-04-26T06:13:21;100258.59;;;5.19;100.00
51439;BME280;38816;51.142;-0.974;2023-04-26T06:15:46;100265.88;;;5.32;100.00
51439;BME280;38816;51.142;-0.974;2023-04-26T06:18:12;100270.56;;;5.44;100.00
51439;BME280;38816;51.142;-0.974;2023-04-26T06:20:37;100253.56;;;5.45;100.00
51439;BME280;38816;51.142;-0.974;2023-04-26T06:23:02;100266.09;;;5.61;100.00
51439;BME280;38816;51.142;-0.974;2023-04-26T06:25:28;100268.16;;;5.71;100.00
51439;BME280;38816;51.142;-0.974;2023-04-26T06:27:54;100240.78;;;5.67;100.00
51439;BME280;38816;51.142;-0.974;2023-04-26T06:30:19;100261.88;;;5.86;100.00
51439;BME280;38816;51.142;-0.974;2023-04-26T06:32:45;100249.16;;;5.87;100.00
51439;BME280;38816;51.142;-0.974;2023-04-26T06:35:11;100264.88;;;5.98;100.00
51439;BME280;38816;51.142;-0.974;2023-04-26T06:37:36;100260.81;;;6.03;100.00
51439;BME280;38816;51.142;-0.974;2023-04-26T06:40:03;100243.84;;;6.03;100.00
51439;BME280;38816;51.142;-0.974;2023-04-26T06:42:28;100243.25;;;6.12;100.00
51439;BME280;38816;51.142;-0.974;2023-04-26T06:44:54;100247.56;;;6.13;100.00
51439;BME280;38816;51.142;-0.974;2023-04-26T06:47:19;100242.38;;;6.12;100.00
51439;BME280;38816;51.142;-0.974;2023-04-26T06:49:45;100236.56;;;6.16;100.00
51439;BME280;38816;51.142;-0.974;2023-04-26T06:52:10;100244.34;;;6.19;100.00
51439;BME280;38816;51.142;-0.974;2023-04-26T06:54:36;100242.78;;;6.22;100.00
51439;BME280;38816;51.142;-0.974;2023-04-26T06:57:01;100237.75;;;6.25;100.00
51439;BME280;38816;51.142;-0.974;2023-04-26T06:59:26;100239.50;;;6.26;100.00
51439;BME280;38816;51.142;-0.974;2023-04-26T07:01:52;100229.22;;;6.25;100.00
51439;BME280;38816;51.142;-0.974;2023-04-26T07:04:18;100229.38;;;6.29;100.00
51439;BME280;38816;51.142;-0.974;2023-04-26T07:06:45;100232.00;;;6.31;100.00
51439;BME280;38816;51.142;-0.974;2023-04-26T07:09:10;100230.41;;;6.34;100.00
51439;BME280;38816;51.142;-0.974;2023-04-26T07:11:36;100234.72;;;6.36;100.00
51439;BME280;38816;51.142;-0.974;2023-04-26T07:14:03;100232.91;;;6.33;100.00
51439;BME280;38816;51.142;-0.974;2023-04-26T07:16:29;100245.88;;;6.39;100.00
51439;BME280;38816;51.142;-0.974;2023-04-26T07:18:55;100241.72;;;6.43;100.00
51439;BME280;38816;51.142;-0.974;2023-04-26T07:21:24;100234.91;;;6.42;100.00
51439;BME280;38816;51.142;-0.974;2023-04-26T07:23:56;100237.78;;;6.52;100.00
51439;BME280;38816;51.142;-0.974;2023-04-26T07:26:23;100236.34;;;6.60;100.00
51439;BME280;38816;51.142;-0.974;2023-04-26T07:28:52;100223.94;;;6.71;100.00
51439;BME280;38816;51.142;-0.974;2023-04-26T07:31:18;100226.94;;;6.85;100.00
51439;BME280;38816;51.142;-0.974;2023-04-26T07:33:44;100236.56;;;6.94;100.00
51439;BME280;38816;51.142;-0.974;2023-04-26T07:36:09;100240.44;;;7.09;100.00
51439;BME280;38816;51.142;-0.974;2023-04-26T07:38:34;100236.44;;;7.18;100.00
51439;BME280;38816;51.142;-0.974;2023-04-26T07:41:00;100230.63;;;7.23;100.00
51439;BME280;38816;51.142;-0.974;2023-04-26T07:43:26;100245.56;;;7.38;100.00
51439;BME280;38816;51.142;-0.974;2023-04-26T07:45:52;100231.88;;;7.36;100.00
51439;BME280;38816;51.142;-0.974;2023-04-26T07:48:18;100240.84;;;7.52;100.00
51439;BME280;38816;51.142;-0.974;2023-04-26T07:50:43;100236.00;;;7.61;100.00
51439;BME280;38816;51.142;-0.974;2023-04-26T07:53:09;100232.13;;;7.75;100.00
51439;BME280;38816;51.142;-0.974;2023-04-26T07:55:34;100231.81;;;7.96;100.00
51439;BME280;38816;51.142;-0.974;2023-04-26T07:58:01;100239.38;;;8.23;100.00
51439;BME280;38816;51.142;-0.974;2023-04-26T08:00:27;100222.84;;;8.44;100.00
51439;BME280;38816;51.142;-0.974;2023-04-26T08:02:52;100224.34;;;8.70;100.00
51439;BME280;38816;51.142;-0.974;2023-04-26T08:05:18;100238.22;;;8.78;100.00
51439;BME280;38816;51.142;-0.974;2023-04-26T08:07:43;100239.78;;;8.73;100.00
51439;BME280;38816;51.142;-0.974;2023-04-26T08:10:10;100243.25;;;8.75;100.00
51439;BME280;38816;51.142;-0.974;2023-04-26T08:12:36;100231.97;;;8.69;100.00
51439;BME280;38816;51.142;-0.974;2023-04-26T08:15:03;100247.34;;;8.69;100.00
51439;BME280;38816;51.142;-0.974;2023-04-26T08:17:29;100237.00;;;8.64;100.00
51439;BME280;38816;51.142;-0.974;2023-04-26T08:19:56;100244.69;;;8.64;100.00
51439;BME280;38816;51.142;-0.974;2023-04-26T08:22:21;100232.41;;;8.51;100.00
51439;BME280;38816;51.142;-0.974;2023-04-26T08:24:49;100242.66;;;8.51;100.00
51439;BME280;38816;51.142;-0.974;2023-04-26T08:27:17;100235.06;;;8.55;100.00
51439;BME280;38816;51.142;-0.974;2023-04-26T08:29:43;100229.31;;;8.64;100.00
51439;BME280;38816;51.142;-0.974;2023-04-26T08:32:09;100242.72;;;8.88;100.00
51439;BME280;38816;51.142;-0.974;2023-04-26T08:34:34;100242.19;;;9.03;100.00
51439;BME280;38816;51.142;-0.974;2023-04-26T08:36:59;100234.78;;;9.16;100.00
51439;BME280;38816;51.142;-0.974;2023-04-26T08:39:25;100237.44;;;9.20;100.00
51439;BME280;38816;51.142;-0.974;2023-04-26T08:41:54;100246.75;;;9.15;100.00
51439;BME280;38816;51.142;-0.974;2023-04-26T08:44:22;100243.03;;;9.02;100.00
51439;BME280;38816;51.142;-0.974;2023-04-26T08:51:49;100245.84;;;8.77;100.00
51439;BME280;38816;51.142;-0.974;2023-04-26T08:54:16;100230.25;;;8.68;100.00
51439;BME280;38816;51.142;-0.974;2023-04-26T08:56:43;100231.88;;;8.64;100.00
51439;BME280;38816;51.142;-0.974;2023-04-26T08:59:08;100241.47;;;8.73;100.00
51439;BME280;38816;51.142;-0.974;2023-04-26T09:01:38;100238.22;;;8.78;100.00
51439;BME280;38816;51.142;-0.974;2023-04-26T09:04:04;100239.28;;;8.88;100.00
51439;BME280;38816;51.142;-0.974;2023-04-26T09:06:31;100233.44;;;8.95;100.00
51439;BME280;38816;51.142;-0.974;2023-04-26T09:08:58;100227.66;;;9.04;100.00
51439;BME280;38816;51.142;-0.974;2023-04-26T09:11:26;100234.13;;;9.24;100.00
51439;BME280;38816;51.142;-0.974;2023-04-26T09:13:53;100228.53;;;9.44;100.00
51439;BME280;38816;51.142;-0.974;2023-04-26T09:16:18;100230.75;;;9.69;100.00
51439;BME280;38816;51.142;-0.974;2023-04-26T09:18:50;100237.44;;;10.05;100.00
51439;BME280;38816;51.142;-0.974;2023-04-26T09:21:16;100226.69;;;10.26;100.00
51439;BME280;38816;51.142;-0.974;2023-04-26T09:23:59;100224.72;;;10.61;98.26
51439;BME280;38816;51.142;-0.974;2023-04-26T09:26:28;100237.78;;;10.75;95.21
51439;BME280;38816;51.142;-0.974;2023-04-26T09:29:16;100238.66;;;10.75;93.30
51439;BME280;38816;51.142;-0.974;2023-04-26T09:31:44;100237.66;;;10.65;94.56
51439;BME280;38816;51.142;-0.974;2023-04-26T09:34:11;100243.66;;;10.66;93.39
51439;BME280;38816;51.142;-0.974;2023-04-26T09:36:57;100241.97;;;10.68;93.97
51439;BME280;38816;51.142;-0.974;2023-04-26T09:39:38;100235.19;;;10.73;93.49
51439;BME280;38816;51.142;-0.974;2023-04-26T09:42:05;100241.22;;;10.75;93.28
51439;BME280;38816;51.142;-0.974;2023-04-26T09:44:31;100235.41;;;10.85;92.63
51439;BME280;38816;51.142;-0.974;2023-04-26T09:47:04;100235.41;;;10.85;91.05
51439;BME280;38816;51.142;-0.974;2023-04-26T09:49:42;100240.63;;;10.92;92.05
51439;BME280;38816;51.142;-0.974;2023-04-26T09:52:09;100239.91;;;11.00;93.69
51439;BME280;38816;51.142;-0.974;2023-04-26T09:54:48;100241.75;;;11.12;92.52
51439;BME280;38816;51.142;-0.974;2023-04-26T09:57:17;100239.16;;;11.09;92.08
51439;BME280;38816;51.142;-0.974;2023-04-26T09:59:44;100232.25;;;11.05;91.27
51439;BME280;38816;51.142;-0.974;2023-04-26T10:02:18;100243.25;;;10.95;91.00
51439;BME280;38816;51.142;-0.974;2023-04-26T10:04:46;100231.13;;;10.86;91.23
51439;BME280;38816;51.142;-0.974;2023-04-26T10:07:13;100234.50;;;10.83;92.19
51439;BME280;38816;51.142;-0.974;2023-04-26T10:09:39;100232.75;;;10.81;92.10
51439;BME280;38816;51.142;-0.974;2023-04-26T10:12:05;100231.13;;;10.87;92.15
51439;BME280;38816;51.142;-0.974;2023-04-26T10:14:31;100223.34;;;10.83;91.27
51439;BME280;38816;51.142;-0.974;2023-04-26T10:16:58;100226.00;;;10.89;90.64
51439;BME280;38816;51.142;-0.974;2023-04-26T10:19:24;100210.53;;;10.86;89.25
51439;BME280;38816;51.142;-0.974;2023-04-26T10:21:52;100221.59;;;10.80;88.40
51439;BME280;38816;51.142;-0.974;2023-04-26T10:24:22;100226.69;;;10.77;88.64
51439;BME280;38816;51.142;-0.974;2023-04-26T10:26:52;100223.13;;;10.69;88.93
51439;BME280;38816;51.142;-0.974;2023-04-26T10:29:22;100221.22;;;10.56;88.02
51439;BME280;38816;51.142;-0.974;2023-04-26T10:34:29;100219.91;;;10.29;88.13
51439;BME280;38816;51.142;-0.974;2023-04-26T10:37:14;100219.72;;;10.20;89.49
51439;BME280;38816;51.142;-0.974;2023-04-26T10:39:44;100218.75;;;10.13;91.30
51439;BME280;38816;51.142;-0.974;2023-04-26T10:42:28;100209.19;;;10.05;91.44
51439;BME280;38816;51.142;-0.974;2023-04-26T10:45:00;100229.69;;;10.03;90.40
51439;BME280;38816;51.142;-0.974;2023-04-26T10:47:46;100219.13;;;9.88;91.10
51439;BME280;38816;51.142;-0.974;2023-04-26T10:50:11;100218.91;;;9.76;91.46
51439;BME280;38816;51.142;-0.974;2023-04-26T10:55:40;100221.38;;;9.71;92.75
51439;BME280;38816;51.142;-0.974;2023-04-26T11:01:17;100230.03;;;9.76;91.66
51439;BME280;38816;51.142;-0.974;2023-04-26T11:06:22;100210.28;;;9.72;90.81
51439;BME280;38816;51.142;-0.974;2023-04-26T11:08:49;100224.28;;;9.88;90.39
51439;BME280;38816;51.142;-0.974;2023-04-26T11:11:15;100221.19;;;10.07;89.60
51439;BME280;38816;51.142;-0.974;2023-04-26T11:13:44;100220.75;;;10.28;88.93
51439;BME280;38816;51.142;-0.974;2023-04-26T11:16:14;100212.56;;;10.51;88.05
51439;BME280;38816;51.142;-0.974;2023-04-26T11:18:44;100216.41;;;10.77;86.82
51439;BME280;38816;51.142;-0.974;2023-04-26T11:21:11;100208.22;;;11.04;84.30
51439;BME280;38816;51.142;-0.974;2023-04-26T11:23:39;100201.69;;;11.29;82.88
51439;BME280;38816;51.142;-0.974;2023-04-26T11:26:06;100196.06;;;11.58;80.89
51439;BME280;38816;51.142;-0.974;2023-04-26T11:28:34;100205.06;;;11.97;79.81
51439;BME280;38816;51.142;-0.974;2023-04-26T11:31:02;100207.19;;;12.39;78.33
51439;BME280;38816;51.142;-0.974;2023-04-26T11:33:28;100185.94;;;12.72;76.53
51439;BME280;38816;51.142;-0.974;2023-04-26T11:35:57;100197.31;;;13.05;75.00
51439;BME280;38816;51.142;-0.974;2023-04-26T11:38:24;100187.94;;;13.19;71.72
51439;BME280;38816;51.142;-0.974;2023-04-26T11:40:57;100188.88;;;13.32;72.09
51439;BME280;38816;51.142;-0.974;2023-04-26T11:43:49;100201.06;;;13.68;72.06
51439;BME280;38816;51.142;-0.974;2023-04-26T11:46:14;100193.41;;;13.92;70.12
51439;BME280;38816;51.142;-0.974;2023-04-26T11:48:41;100185.63;;;14.00;69.26
51439;BME280;38816;51.142;-0.974;2023-04-26T11:51:07;100195.16;;;14.15;67.63
51439;BME280;38816;51.142;-0.974;2023-04-26T11:53:37;100192.56;;;14.21;66.81
51439;BME280;38816;51.142;-0.974;2023-04-26T11:56:14;100181.41;;;14.60;65.75
51439;BME280;38816;51.142;-0.974;2023-04-26T11:58:46;100192.56;;;14.85;64.95
51439;BME280;38816;51.142;-0.974;2023-04-26T12:01:19;100191.66;;;15.08;66.27
51439;BME280;38816;51.142;-0.974;2023-04-26T12:03:48;100188.22;;;15.09;64.30
51439;BME280;38816;51.142;-0.974;2023-04-26T12:06:14;100185.56;;;15.21;63.71
51439;BME280;38816;51.142;-0.974;2023-04-26T12:08:39;100192.47;;;15.28;62.31
51439;BME280;38816;51.142;-0.974;2023-04-26T12:11:05;100188.09;;;15.41;63.11
51439;BME280;38816;51.142;-0.974;2023-04-26T12:13:31;100188.97;;;15.34;60.85
51439;BME280;38816;51.142;-0.974;2023-04-26T12:15:57;100180.41;;;15.19;61.38
51439;BME280;38816;51.142;-0.974;2023-04-26T12:18:28;100188.25;;;14.92;61.19
51439;BME280;38816;51.142;-0.974;2023-04-26T12:20:57;100169.31;;;14.73;63.06
51439;BME280;38816;51.142;-0.974;2023-04-26T12:23:22;100171.06;;;14.68;62.50
51439;BME280;38816;51.142;-0.974;2023-04-26T12:25:55;100172.75;;;14.63;62.80
51439;BME280;38816;51.142;-0.974;2023-04-26T12:28:22;100169.28;;;14.72;63.13
51439;BME280;38816;51.142;-0.974;2023-04-26T12:30:48;100177.06;;;14.75;63.90
51439;BME280;38816;51.142;-0.974;2023-04-26T12:33:14;100164.94;;;14.89;64.81
51439;BME280;38816;51.142;-0.974;2023-04-26T12:35:40;100156.38;;;14.75;64.36
51439;BME280;38816;51.142;-0.974;2023-04-26T12:38:06;100156.41;;;14.56;62.37
51439;BME280;38816;51.142;-0.974;2023-04-26T12:40:32;100171.00;;;14.96;64.88
51439;BME280;38816;51.142;-0.974;2023-04-26T12:42:57;100172.56;;;15.33;63.75
51439;BME280;38816;51.142;-0.974;2023-04-26T12:45:24;100161.19;;;15.69;63.59
51439;BME280;38816;51.142;-0.974;2023-04-26T12:47:53;100162.06;;;15.73;60.38
51439;BME280;38816;51.142;-0.974;2023-04-26T12:50:18;100157.91;;;15.37;60.85
51439;BME280;38816;51.142;-0.974;2023-04-26T12:52:47;100167.50;;;15.09;60.17
51439;BME280;38816;51.142;-0.974;2023-04-26T12:55:13;100169.25;;;14.94;61.20